Terminal Aerodrome Forecast
Issued by NWS Quad Cities IA IL

Current Version | Previous Version | Text Only | Print | Product List | Glossary On
Versions: 1 2 3 4 5 6 7 8 9 10 11 12 13 14 15 16 17 18 19 20 21 22 23 24 25 26 27
000
FTUS43 KDVN 221900 AAA
TAFMLI
TAF AMD
KMLI 221907Z 2219/2318 21011G15KT P6SM FEW110
     FM222000 19004KT P6SM VCTS BKN050CB
     FM230200 VRB03KT P6SM SCT050 BKN150
     FM230600 VRB03KT 6SM BR VCTS SCT050CB OVC150
     FM230900 VRB03KT 2SM -RA BR VCTS FEW018 BKN040CB OVC150
     FM231500 14004KT 5SM BR VCTS SCT030 BKN050CB=

USA.gov is the U.S. government's official web portal to all federal, state and local government web resources and services.